1930 NOT_NAMED (1930236N12145)


IBTrACS version v04r00. Visit IBTrACS website for data access.
Please direct all questions to the IBTrACS Q and A forum

Storm track - Intensity - Wind Radii - Intensity Data - Source Data - All data

Summary Information

Storm ID 1930236N12145
Start Aug 23 22Z
End Aug 27 22Z
ATCF IDs
Track status Best track data.

Storm track plot

Map of storm track

Intensity plots

No Intensity information for this storm


Radial wind information

No radial wind information for this storm


Position and Intensity Table

BASIN ISO_TIME_________ NATURE LAT LON
degrees north degrees east
WP 1930-08-23 22:00:00 NR 12.30 144.80
WP 1930-08-24 00:00:00 NR 13.12 144.78
WP 03:00:00 NR 14.35 144.75
WP 06:00:00 NR 15.53 144.72
WP 09:00:00 NR 16.65 144.70
WP 10:00:00 NR 17.00 144.70
WP 12:00:00 NR 17.68 144.70
WP 15:00:00 NR 18.61 144.68
WP 18:00:00 NR 19.45 144.64
WP 21:00:00 NR 20.18 144.55
WP 22:00:00 NR 20.40 144.50
WP 1930-08-25 00:00:00 NR 20.83 144.39
WP 03:00:00 NR 21.38 144.17
WP 06:00:00 NR 21.86 143.89
WP 09:00:00 NR 22.27 143.53
WP 10:00:00 NR 22.40 143.40
WP 12:00:00 NR 22.66 143.11
WP 15:00:00 NR 23.01 142.62
WP 18:00:00 NR 23.34 142.10
WP 21:00:00 NR 23.68 141.57
WP 22:00:00 NR 23.80 141.40
WP 1930-08-26 00:00:00 NR 24.06 141.05
WP 03:00:00 NR 24.46 140.55
WP 06:00:00 NR 24.89 140.09
WP 09:00:00 NR 25.34 139.70
WP 10:00:00 NR 25.50 139.60
WP 12:00:00 NR 25.86 139.42
WP 15:00:00 NR 26.42 139.23
WP 18:00:00 NR 26.97 139.13
WP 21:00:00 NR 27.46 139.10
WP 22:00:00 NR 27.60 139.10
WP 1930-08-27 00:00:00 NR 27.82 139.09
WP 03:00:00 NR 28.07 139.13
WP 06:00:00 NR 28.26 139.22
WP 09:00:00 NR 28.44 139.35
WP 10:00:00 NR 28.50 139.40
WP 12:00:00 NR 28.63 139.50
WP 15:00:00 NR 28.84 139.67
WP 18:00:00 NR 29.08 139.85
WP 21:00:00 NR 29.32 140.04
WP 22:00:00 NR 29.40 140.10

Source Information

Agency Information
USA
TOKYO
CMA
HKO
NEWDELHI
REUNION
BOM
NADI
WELLINGTON
DS824
TD9636 cons_worldwide_trop_cyclone_18710101-19891231-003:Line=8659
TD9635
NEUMANN
MLC

All available IBTrACS Data

SEASON BASIN SUBBASIN ISO_TIME_________ NATURE LAT LON DIST2LAND LANDFALL IFLAG USA SSHS TD9636 LAT TD9636 LON TD9636 STAGE STORM SPEED STORM DIR
Year degrees north degrees east km km 1 degrees north degrees east kts degrees
1930 WP MM 1930-08-23 22:00:00 NR 12.30 144.80 1625 1625 __________O___ -1 12.30 144.80 7 25 0
1930 WP MM 1930-08-24 00:00:00 NR 13.12 144.78 1714 1725 __________P___ -1 13.12 144.78 7 25 358
1930 WP MM 03:00:00 NR 14.35 144.75 1849 1860 __________P___ -1 14.35 144.75 7 24 359
1930 WP MM 06:00:00 NR 15.53 144.72 1982 1993 __________P___ -1 15.53 144.72 7 23 359
1930 WP MM 09:00:00 NR 16.65 144.70 2077 2046 __________P___ -1 16.65 144.70 7 22 0
1930 WP MM 10:00:00 NR 17.00 144.70 2036 1965 __________O___ -1 17.00 144.70 7 21 0
1930 WP MM 12:00:00 NR 17.68 144.70 1965 1874 __________P___ -1 17.68 144.70 7 19 359
1930 WP MM 15:00:00 NR 18.61 144.68 1874 1790 __________P___ -1 18.61 144.68 7 18 358
1930 WP MM 18:00:00 NR 19.45 144.64 1790 1702 __________P___ -1 19.45 144.64 7 16 355
1930 WP MM 21:00:00 NR 20.18 144.55 1702 1680 __________P___ -1 20.18 144.55 7 15 352
1930 WP MM 22:00:00 NR 20.40 144.50 1680 1634 __________O___ -1 20.40 144.50 7 13 347
1930 WP MM 1930-08-25 00:00:00 NR 20.83 144.39 1634 1564 __________P___ -1 20.83 144.39 7 12 343
1930 WP MM 03:00:00 NR 21.38 144.17 1564 1502 __________P___ -1 21.38 144.17 7 11 335
1930 WP MM 06:00:00 NR 21.86 143.89 1502 1447 __________P___ -1 21.86 143.89 7 11 326
1930 WP MM 09:00:00 NR 22.27 143.53 1447 1433 __________P___ -1 22.27 143.53 7 11 320
1930 WP MM 10:00:00 NR 22.40 143.40 1433 1391 __________O___ -1 22.40 143.40 7 11 315
1930 WP MM 12:00:00 NR 22.66 143.11 1391 1337 __________P___ -1 22.66 143.11 7 11 311
1930 WP MM 15:00:00 NR 23.01 142.62 1337 1284 __________P___ -1 23.01 142.62 7 12 306
1930 WP MM 18:00:00 NR 23.34 142.10 1284 1221 __________P___ -1 23.34 142.10 7 12 305
1930 WP MM 21:00:00 NR 23.68 141.57 1221 1202 __________P___ -1 23.68 141.57 7 12 306
1930 WP MM 22:00:00 NR 23.80 141.40 1202 1158 __________O___ -1 23.80 141.40 7 12 308
1930 WP MM 1930-08-26 00:00:00 NR 24.06 141.05 1158 1093 __________P___ -1 24.06 141.05 7 12 310
1930 WP MM 03:00:00 NR 24.46 140.55 1093 1036 __________P___ -1 24.46 140.55 7 12 313
1930 WP MM 06:00:00 NR 24.89 140.09 1036 979 __________P___ -1 24.89 140.09 7 12 319
1930 WP MM 09:00:00 NR 25.34 139.70 979 955 __________P___ -1 25.34 139.70 7 11 324
1930 WP MM 10:00:00 NR 25.50 139.60 955 906 __________O___ -1 25.50 139.60 7 12 334
1930 WP MM 12:00:00 NR 25.86 139.42 906 846 __________P___ -1 25.86 139.42 7 12 340
1930 WP MM 15:00:00 NR 26.42 139.23 846 781 __________P___ -1 26.42 139.23 7 11 347
1930 WP MM 18:00:00 NR 26.97 139.13 781 730 __________P___ -1 26.97 139.13 7 11 354
1930 WP MM 21:00:00 NR 27.46 139.10 730 719 __________P___ -1 27.46 139.10 7 9 356
1930 WP MM 22:00:00 NR 27.60 139.10 719 699 __________O___ -1 27.60 139.10 7 7 359
1930 WP MM 1930-08-27 00:00:00 NR 27.82 139.09 699 669 __________P___ -1 27.82 139.09 7 6 4
1930 WP MM 03:00:00 NR 28.07 139.13 669 654 __________P___ -1 28.07 139.13 7 5 15
1930 WP MM 06:00:00 NR 28.26 139.22 654 649 __________P___ -1 28.26 139.22 7 4 27
1930 WP MM 09:00:00 NR 28.44 139.35 654 645 __________P___ -1 28.44 139.35 7 4 33
1930 WP MM 10:00:00 NR 28.50 139.40 645 635 __________O___ -1 28.50 139.40 7 5 35
1930 WP MM 12:00:00 NR 28.63 139.50 640 627 __________P___ -1 28.63 139.50 7 5 35
1930 WP MM 15:00:00 NR 28.84 139.67 632 611 __________P___ -1 28.84 139.67 7 5 34
1930 WP MM 18:00:00 NR 29.08 139.85 617 601 __________P___ -1 29.08 139.85 7 6 34
1930 WP MM 21:00:00 NR 29.32 140.04 601 592 __________P___ -1 29.32 140.04 7 6 34
1930 WP MM 22:00:00 NR 29.40 140.10 592 __________O___ -1 29.40 140.10 7 6 33